Latest Weather Observations for Delamere

IDD60801

Issued at 11:01 am CST Tuesday 1 September 2015 (issued every 30 minutes, with the page automatically refreshed every 10 minutes)

About weather observations | Map of weather stations | Latest weather observations for NT | Other Formats
Station Details ID: 014949 Name: DELAMERE WEAPONS RANGE Lat: -15.74 Lon: 131.92 Height: 221.0 m
Data from the previous 72 hours. | See also: Recent months at Delamere
Date/Time
CST
Temp
°C
App
Temp
°C
Dew
Point
Rel
Hum
%
Delta-T
°C
Wind Press
QNH
hPa
Press
MSL
hPa
Rain
since 9 am
mm
Dir
 
Spd
km/h
Gust
km/h
Spd
kts
Gust
kts
01/11:00am 30.3 28.8 16.3 42 8.8 NW 19 28 10 15 1014.9 - 0.0
01/10:30am 29.0 27.3 16.2 46 8.0 NNW 20 26 11 14 1015.3 - 0.0
01/10:00am 27.9 26.4 16.2 49 7.3 NNW 19 26 10 14 1015.5 - 0.0
01/09:30am 26.9 25.3 15.9 51 6.8 NNW 19 24 10 13 1015.4 - 0.0
01/09:00am 25.2 23.4 15.5 55 5.9 NNW 19 26 10 14 1015.1 1013.8 0.0
01/08:30am 24.0 22.7 14.7 56 5.6 N 15 22 8 12 1015.0 - 0.0
01/08:00am 22.5 21.5 10.9 48 6.5 NNW 7 9 4 5 1014.8 - 0.0
01/07:30am 21.2 18.3 9.8 48 6.2 N 15 19 8 10 1014.0 - 0.0
01/07:00am 20.2 16.9 9.5 50 5.8 NE 17 20 9 11 1013.3 - 0.0
01/06:30am 19.6 18.1 9.2 51 5.5 NE 7 9 4 5 1013.1 - 0.0
01/06:00am 20.3 18.7 8.9 48 6.1 E 7 9 4 5 1012.9 1011.7 0.0
01/05:30am 20.6 19.1 9.2 48 6.1 E 7 9 4 5 1012.6 - 0.0
01/05:00am 21.0 19.2 9.6 48 6.2 ESE 9 13 5 7 1012.5 - 0.0
01/04:30am 21.2 17.8 10.4 50 5.9 E 19 30 10 16 1012.6 - 0.0
01/04:00am 21.3 21.3 9.9 48 6.2 CALM 0 0 0 0 1012.3 - 0.0
01/03:30am 21.4 21.3 9.6 47 6.4 CALM 0 0 0 0 1012.4 - 0.0
01/03:00am 22.1 22.2 10.3 47 6.5 CALM 0 0 0 0 1012.6 1011.4 0.0
01/02:30am 22.2 20.9 10.0 46 6.7 NW 7 9 4 5 1012.7 - 0.0
01/02:00am 22.3 21.2 10.1 46 6.7 NNW 6 11 3 6 1013.0 - 0.0
01/01:30am 24.0 22.2 10.7 43 7.5 WNW 11 15 6 8 1013.3 - 0.0
01/01:00am 21.9 20.5 8.8 43 7.0 NNW 6 7 3 4 1013.3 - 0.0
01/12:30am 22.5 21.3 9.6 44 7.0 ENE 6 15 3 8 1013.5 - 0.0
01/12:00am 23.6 23.3 8.5 38 8.1 CALM 0 0 0 0 1013.5 1012.3 0.0
 
Date/Time
CST
Temp
°C
App
Temp
°C
Dew
Point
Rel
Hum
%
Delta-T
°C
Wind Press
QNH
hPa
Press
MSL
hPa
Rain
since 9 am
mm
Dir
 
Spd
km/h
Gust
km/h
Spd
kts
Gust
kts
31/11:30pm 24.1 23.8 8.5 37 8.4 CALM 0 0 0 0 1013.6 - 0.0
31/11:00pm 24.3 24.1 9.1 38 8.3 CALM 0 0 0 0 1013.7 - 0.0
31/10:30pm 24.6 24.4 9.0 37 8.5 CALM 0 0 0 0 1013.6 - 0.0
31/10:00pm 25.3 24.6 8.7 35 9.1 ESE 2 6 1 3 1013.6 - 0.0
31/09:30pm 25.9 25.6 8.8 34 9.4 CALM 0 0 0 0 1013.6 - 0.0
31/09:00pm 26.2 25.9 8.7 33 9.6 CALM 0 0 0 0 1013.4 1012.5 0.0
31/08:30pm 26.6 25.2 9.0 33 9.7 NNW 6 7 3 4 1013.1 - 0.0
31/08:00pm 27.6 27.4 9.0 31 10.3 CALM 0 0 0 0 1012.6 - 0.0
31/07:30pm 28.6 28.3 8.8 29 11.0 CALM 0 0 0 0 1012.3 - 0.0
31/07:00pm 30.0 29.8 9.0 27 11.8 CALM 0 0 0 0 1012.0 - 0.0
31/06:30pm 31.2 30.2 8.8 25 12.6 NW 4 7 2 4 1011.9 - 0.0
31/06:00pm 33.5 31.8 8.2 21 14.3 N 7 11 4 6 1011.7 1010.7 0.0
31/05:30pm 33.6 31.9 8.3 21 14.3 NE 7 13 4 7 1011.5 - 0.0
31/05:00pm 33.9 31.1 8.5 21 14.4 ENE 13 19 7 10 1011.4 - 0.0
31/04:30pm 33.5 31.6 8.9 22 14.0 E 9 20 5 11 1011.5 - 0.0
31/04:00pm 33.1 31.1 8.5 22 13.9 WSW 9 11 5 6 1011.7 - 0.0
31/03:30pm 33.2 30.8 8.6 22 13.9 ENE 11 19 6 10 1012.1 - 0.0
31/03:00pm 33.9 32.4 9.2 22 14.2 WNW 7 15 4 8 1012.4 1011.4 0.0
31/02:30pm 33.2 30.8 8.6 22 13.9 N 11 19 6 10 1012.9 - 0.0
31/02:00pm 32.5 30.4 9.9 25 13.0 NE 11 20 6 11 1013.3 - 0.0
31/01:30pm 32.2 29.9 10.3 26 12.7 N 13 22 7 12 1013.8 - 0.0
31/01:00pm 31.6 28.4 11.9 30 11.7 N 20 28 11 15 1014.5 - 0.0
31/12:30pm 31.3 29.8 13.1 33 11.0 NE 13 26 7 14 1015.0 - 0.0
31/12:00pm 30.4 28.0 12.8 34 10.5 NE 17 28 9 15 1015.6 1014.6 0.0
31/11:30am 30.2 28.5 14.7 39 9.5 NNE 17 28 9 15 1016.1 - 0.0
31/11:00am 28.5 26.8 14.7 43 8.4 NNE 17 28 9 15 1016.6 - 0.0
31/10:30am 28.1 26.2 15.7 46 7.7 N 20 28 11 15 1016.8 - 0.0
31/10:00am 27.2 24.3 13.9 44 8.0 NNE 22 32 12 17 1017.0 - 0.0
31/09:30am 26.9 23.7 11.8 39 8.7 NNE 20 32 11 17 1016.8 - 0.0
31/09:00am 25.5 21.8 9.3 36 8.9 ENE 19 26 10 14 1016.6 1015.6 0.0
31/08:30am 23.6 20.7 8.1 37 8.3 ENE 13 19 7 10 1016.6 - 0.0
31/08:00am 21.4 18.2 6.9 39 7.5 ENE 13 17 7 9 1016.2 - 0.0
31/07:30am 19.8 17.1 5.8 40 7.0 ENE 9 11 5 6 1016.0 - 0.0
31/07:00am 19.1 16.3 5.2 40 6.8 E 9 11 5 6 1015.7 - 0.0
31/06:30am 19.6 16.8 5.3 39 7.1 E 9 15 5 8 1015.4 - 0.0
31/06:00am 19.9 17.2 5.5 39 7.2 ESE 9 13 5 7 1014.9 1013.9 0.0
31/05:30am 20.3 17.6 5.5 38 7.4 SE 9 15 5 8 1014.6 - 0.0
31/05:00am 21.0 17.2 5.8 37 7.7 E 15 20 8 11 1013.9 - 0.0
31/04:30am 21.1 17.7 5.9 37 7.7 E 13 19 7 10 1014.0 - 0.0
31/04:00am 21.6 18.1 5.5 35 8.1 E 13 17 7 9 1014.4 - 0.0
31/03:30am 22.4 18.6 5.8 34 8.4 E 15 20 8 11 1014.5 - 0.0
31/03:00am 22.9 19.5 5.8 33 8.7 ESE 13 20 7 11 1014.8 1013.8 0.0
31/02:30am 23.2 19.7 5.6 32 9.0 ESE 13 19 7 10 1015.1 - 0.0
31/02:00am 23.7 20.2 5.6 31 9.3 ESE 13 20 7 11 1015.3 - 0.0
31/01:30am 24.0 20.2 5.8 31 9.4 SE 15 20 8 11 1015.4 - 0.0
31/01:00am 24.7 20.9 6.0 30 9.7 SE 15 20 8 11 1015.3 - 0.0
31/12:30am 25.2 21.8 5.9 29 10.0 SE 13 17 7 9 1015.5 - 0.0
31/12:00am 25.8 22.1 6.4 29 10.2 SE 15 22 8 12 1015.6 1014.6 0.0
 
Date/Time
CST
Temp
°C
App
Temp
°C
Dew
Point
Rel
Hum
%
Delta-T
°C
Wind Press
QNH
hPa
Press
MSL
hPa
Rain
since 9 am
mm
Dir
 
Spd
km/h
Gust
km/h
Spd
kts
Gust
kts
30/11:30pm 25.2 23.1 8.2 34 9.2 SSE 9 13 5 7 1015.4 - 0.0
30/11:00pm 23.1 22.5 7.2 36 8.3 CALM 0 0 0 0 1015.5 - 0.0
30/10:30pm 23.5 22.9 7.2 35 8.6 CALM 0 0 0 0 1015.5 - 0.0
30/10:00pm 24.0 22.3 7.6 35 8.7 SSE 6 7 3 4 1015.4 - 0.0
30/09:30pm 25.3 24.6 7.0 31 9.7 CALM 0 4 0 2 1015.2 - 0.0
30/09:00pm 26.0 24.1 6.6 29 10.2 S 6 7 3 4 1015.1 1014.1 0.0
30/08:30pm 27.9 26.0 6.6 26 11.4 SE 6 9 3 5 1014.8 - 0.0
30/08:00pm 28.8 26.5 7.4 26 11.6 SSE 9 11 5 6 1014.6 - 0.0
30/07:30pm 29.0 27.0 7.0 25 11.9 SSE 7 9 4 5 1014.2 - 0.0
30/07:00pm 30.4 28.4 7.0 23 12.7 SSE 7 11 4 6 1013.8 - 0.0
30/06:30pm 31.7 29.2 6.7 21 13.6 SSE 9 11 5 6 1013.5 - 0.0
30/06:00pm 32.8 29.2 6.9 20 14.3 SSE 15 20 8 11 1013.2 1012.3 0.0
30/05:30pm 33.3 30.2 7.3 20 14.4 ESE 13 17 7 9 1013.0 - 0.0
30/05:00pm 33.0 30.2 7.1 20 14.3 S 11 15 6 8 1012.9 - 0.0
30/04:30pm 34.3 30.7 6.6 18 15.3 SSE 15 26 8 14 1012.9 - 0.0
30/04:00pm 34.1 30.6 5.6 17 15.5 S 13 19 7 10 1013.0 - 0.0
30/03:30pm 33.4 30.5 6.6 19 14.7 ESE 11 19 6 10 1013.2 - 0.0
30/03:00pm 33.4 31.4 8.8 22 14.0 NE 9 19 5 10 1013.3 1012.4 0.0
30/02:30pm 33.0 29.6 9.1 23 13.6 SE 17 33 9 18 1013.8 - 0.0
30/02:00pm 33.4 31.7 11.3 26 13.1 NE 11 20 6 11 1014.4 - 0.0
30/01:30pm 31.1 29.2 10.4 28 11.9 ENE 11 20 6 11 1015.1 - 0.0
30/01:00pm 31.0 28.7 10.4 28 11.9 E 13 24 7 13 1015.8 - 0.0
30/12:30pm 31.2 29.1 11.1 29 11.7 E 13 26 7 14 1016.4 - 0.0
30/12:00pm 29.5 26.0 10.1 30 11.0 E 19 28 10 15 1017.0 1016.1 0.0
30/11:30am 29.4 26.0 10.5 31 10.8 ESE 19 28 10 15 1017.7 - 0.0
30/11:00am 29.0 25.5 10.2 31 10.7 E 19 26 10 14 1018.2 - 0.0
30/10:30am 28.0 25.3 10.2 33 10.1 ENE 15 26 8 14 1018.4 - 0.0
30/10:00am 26.4 23.0 10.5 37 9.0 E 19 26 10 14 1018.6 - 0.0
30/09:30am 25.6 22.6 10.6 39 8.5 E 17 26 9 14 1018.6 - 0.0
30/09:00am 24.3 21.2 10.2 41 7.8 E 17 20 9 11 1018.2 1017.3 0.0
30/08:30am 23.1 20.6 10.9 46 6.8 E 15 22 8 12 1018.1 - 0.0
30/08:00am 21.6 19.3 11.6 53 5.6 NE 15 22 8 12 1017.6 - 0.0
30/07:30am 20.2 18.9 11.4 57 4.9 NE 9 13 5 7 1017.3 - 0.0
30/07:00am 19.5 18.2 11.3 59 4.5 ENE 9 11 5 6 1016.8 - 0.0
30/06:30am 19.6 18.3 11.4 59 4.6 ENE 9 11 5 6 1016.3 - 0.0
30/06:00am 20.3 18.7 11.5 57 4.9 E 11 15 6 8 1016.0 1015.0 0.0
30/05:30am 20.8 19.2 11.4 55 5.3 E 11 17 6 9 1015.7 - 0.0
30/05:00am 21.5 20.0 11.8 54 5.5 E 11 15 6 8 1015.6 - 0.0
30/04:30am 21.3 20.0 11.3 53 5.6 ESE 9 13 5 7 1015.4 - 0.0
30/04:00am 21.7 20.8 11.4 52 5.8 SE 7 13 4 7 1015.4 - 0.0
30/03:30am 22.0 21.2 11.7 52 5.8 ESE 7 9 4 5 1015.7 - 0.0
30/03:00am 22.0 20.8 11.7 52 5.8 NE 9 11 5 6 1015.8 1014.8 0.0
30/02:30am 23.0 21.9 12.0 50 6.3 SSE 9 11 5 6 1015.8 - 0.0
30/02:00am 23.5 22.8 11.9 48 6.6 E 7 9 4 5 1016.0 - 0.0
30/01:30am 24.1 23.4 12.1 47 6.9 SE 7 9 4 5 1016.1 - 0.0
30/01:00am 24.4 23.7 12.0 46 7.1 ESE 7 9 4 5 1016.4 - 0.0
30/12:30am 25.1 24.6 12.0 44 7.6 SSW 6 11 3 6 1016.8 - 0.0
30/12:00am 25.6 24.9 12.1 43 7.8 SE 7 11 4 6 1016.4 1015.4 0.0
 
Date/Time
CST
Temp
°C
App
Temp
°C
Dew
Point
Rel
Hum
%
Delta-T
°C
Wind Press
QNH
hPa
Press
MSL
hPa
Rain
since 9 am
mm
Dir
 
Spd
km/h
Gust
km/h
Spd
kts
Gust
kts
29/11:30pm 25.7 25.1 12.2 43 7.8 SSE 7 9 4 5 1016.4 - 0.0
29/11:00pm 25.6 24.4 11.7 42 8.0 S 9 13 5 7 1016.4 - 0.0
29/10:30pm 26.1 24.6 11.8 41 8.3 S 11 13 6 7 1016.3 - 0.0
29/10:00pm 26.6 25.5 11.9 40 8.5 SSE 9 11 5 6 1016.3 - 0.0
29/09:30pm 27.3 26.2 12.1 39 8.9 SE 9 13 5 7 1016.1 - 0.0
29/09:00pm 27.8 26.7 11.8 37 9.3 SE 9 13 5 7 1015.9 1014.9 0.0
29/08:30pm 28.3 26.8 11.8 36 9.6 SE 11 15 6 8 1015.6 - 0.0
29/08:00pm 29.1 27.1 11.6 33 10.2 SE 13 17 7 9 1015.3 - 0.0
29/07:30pm 29.9 28.3 11.4 32 10.8 SE 11 17 6 9 1014.9 - 0.0
29/07:00pm 30.2 29.0 11.7 32 10.9 SE 9 13 5 7 1014.5 - 0.0
29/06:30pm 30.7 29.0 11.1 30 11.4 SE 11 17 6 9 1014.1 - 0.0
29/06:00pm 31.4 29.7 11.2 29 11.8 ESE 11 15 6 8 1013.8 1012.9 0.0
29/05:30pm 32.6 31.8 11.7 28 12.4 SSE 7 15 4 8 1013.7 - 0.0
29/05:00pm 32.3 31.3 10.9 27 12.5 SSW 7 15 4 8 1013.5 - 0.0
29/04:30pm 32.0 30.3 11.2 28 12.2 SSE 11 19 6 10 1013.5 - 0.0
29/04:00pm 31.9 30.2 11.1 28 12.2 SE 11 20 6 11 1013.6 - 0.0
29/03:30pm 31.9 30.9 11.1 28 12.2 S 7 13 4 7 1013.9 - 0.0
29/03:00pm 31.5 29.7 10.8 28 12.0 ENE 11 17 6 9 1014.2 1013.3 0.0
29/02:30pm 31.5 28.9 10.8 28 12.0 ENE 15 24 8 13 1014.8 - 0.0
29/02:00pm 31.2 29.1 11.1 29 11.7 NE 13 24 7 13 1015.4 - 0.0
29/01:30pm 30.6 28.9 11.1 30 11.4 E 11 24 6 13 1016.1 - 0.0
29/01:00pm 29.8 28.5 11.3 32 10.8 NE 9 19 5 10 1016.7 - 0.0
29/12:30pm 28.2 26.9 11.3 35 9.8 NE 9 19 5 10 1017.3 - 0.0
29/12:00pm 27.4 25.0 11.4 37 9.2 E 15 24 8 13 1017.8 1016.9 0.0
29/11:30am 27.3 25.0 11.7 37 9.0 E 15 26 8 14 1018.5 - 0.0

Other Formats:

Comma delimited format used in spreadsheet applications
http://www.bom.gov.au/fwo/IDD60801/IDD60801.94225.axf

JavaScript Object Notation format (JSON) in row-major order
http://www.bom.gov.au/fwo/IDD60801/IDD60801.94225.json